Arcadia, Indiana
Current Conditions -  °F | °C
As of 4:35 AM on Tuesday 21 Oct 2014 (Local Time) from KTYQ Reporting Station
Overcast Overcast  
Wind Chill: 45°   Ceiling: 5000
Heat Index: 47°   Visibility: 7mi
Dew Point: 44°   Wind: 5mph
Humidity: 88%   Direction: 300°WNW
Pressure: 29.98"   Gusts: NA
Location:  40.18°N, 86.02°W
Report Text: KTYQ 210835Z AUTO 30004KT 7SM OVC050 09/07 A2998 RMK AO2 T00850067
Loading
Personal Weather Stations






























Interactive Weather Map
Tropical Storm Tracking
New forecast layout! Learn more

10-Day Weather Forecast

Advertisements
Track Severe Weather on mobile